createdAt,value
2023-02-14T00:01:18.628Z,0.8
2023-02-14T00:05:21.950Z,0.9
2023-02-14T00:09:21.758Z,0.8
2023-02-14T00:11:21.670Z,0.8
2023-02-14T00:13:21.562Z,0.7
2023-02-14T00:15:21.490Z,0.8
2023-02-14T00:19:24.792Z,0.7
2023-02-14T00:21:24.714Z,0.6
2023-02-14T00:23:24.625Z,0.6
2023-02-14T00:25:24.560Z,0.7
2023-02-14T00:27:24.450Z,0.5
2023-02-14T00:29:24.376Z,0.6
2023-02-14T00:31:27.883Z,0.5
2023-02-14T00:33:27.686Z,0.6
2023-02-14T00:35:27.610Z,0.6
2023-02-14T00:37:27.516Z,0.5
2023-02-14T00:39:27.409Z,0.5
2023-02-14T00:41:27.337Z,0.5
2023-02-14T00:43:27.253Z,0.5
2023-02-14T00:47:30.563Z,0.4
2023-02-14T00:49:30.503Z,0.4
2023-02-14T00:50:32.172Z,0.4
2023-02-14T00:52:32.099Z,0.5
2023-02-14T00:54:32.001Z,0.4
2023-02-14T00:56:31.930Z,0.4
2023-02-14T00:58:35.335Z,0.3
2023-02-14T01:00:35.271Z,0.4
2023-02-14T01:02:35.184Z,0.4
2023-02-14T01:04:35.018Z,0.4
2023-02-14T01:06:34.945Z,0.3
2023-02-14T01:08:34.825Z,0.4
2023-02-14T01:12:38.177Z,0.4
2023-02-14T01:14:38.093Z,0.4
2023-02-14T01:16:38.091Z,0.5
2023-02-14T01:18:37.935Z,0.4
2023-02-14T01:20:37.817Z,0.4
2023-02-14T01:22:37.734Z,0.4
2023-02-14T01:24:37.631Z,0.3
2023-02-14T01:26:41.094Z,0.3
2023-02-14T01:38:40.492Z,0.3
2023-02-14T01:40:43.895Z,0.3
2023-02-14T01:42:43.837Z,0.3
2023-02-14T01:44:43.727Z,0.1
2023-02-14T01:45:45.477Z,0.3
2023-02-14T01:47:45.352Z,0.3
2023-02-14T01:49:45.235Z,0.3
2023-02-14T01:51:45.194Z,0.2
2023-02-14T01:53:48.597Z,0.2
2023-02-14T01:55:48.529Z,0.1
2023-02-14T01:57:48.437Z,0.1
2023-02-14T01:59:48.413Z,0.1
2023-02-14T02:01:48.238Z,0.2
2023-02-14T02:03:48.150Z,0.2
2023-02-14T02:05:48.071Z,0.2
2023-02-14T02:09:51.387Z,0.3
2023-02-14T02:11:51.289Z,0.2
2023-02-14T02:13:51.225Z,0.3
2023-02-14T02:17:51.032Z,0.2
2023-02-14T02:19:50.928Z,0.3
2023-02-14T02:21:55.400Z,0.3
2023-02-14T02:23:55.325Z,0.3
2023-02-14T02:25:55.213Z,0.2
2023-02-14T02:27:55.159Z,0.2
2023-02-14T02:29:55.107Z,0.2
2023-02-14T02:31:55.180Z,0.2
2023-02-14T02:35:58.318Z,0.3
2023-02-14T02:37:58.238Z,0.2
2023-02-14T02:42:59.747Z,0.3
2023-02-14T02:44:59.652Z,0.2
2023-02-14T02:49:02.955Z,0.3
2023-02-14T02:51:02.896Z,0.3
2023-02-14T02:53:02.810Z,0.2
2023-02-14T02:55:02.708Z,0.2
2023-02-14T02:57:02.647Z,0.3
2023-02-14T02:59:02.558Z,0.3
2023-02-14T03:01:02.619Z,0.3
2023-02-14T03:03:05.843Z,0.2
2023-02-14T03:07:05.691Z,0.3
2023-02-14T03:09:05.586Z,0.2
2023-02-14T03:11:05.514Z,0.3
2023-02-14T03:13:05.426Z,0.3
2023-02-14T03:17:08.752Z,0.3
2023-02-14T03:19:08.660Z,0.3
2023-02-14T03:27:08.332Z,0.5
2023-02-14T03:29:08.220Z,0.6
2023-02-14T03:31:11.839Z,0.5
2023-02-14T03:33:11.540Z,0.5
2023-02-14T03:35:11.459Z,0.6
2023-02-14T03:37:13.920Z,0.6
2023-02-14T03:45:16.116Z,0.4
2023-02-14T03:47:15.962Z,0.4
2023-02-14T03:49:18.397Z,0.4
2023-02-14T03:51:18.349Z,0.5
2023-02-14T03:53:18.242Z,0.4
2023-02-14T03:55:20.702Z,0.5
2023-02-14T03:57:20.645Z,0.4
2023-02-14T03:59:20.526Z,0.5
2023-02-14T04:03:22.899Z,0.5
2023-02-14T04:07:45.150Z,0.5
2023-02-14T04:09:45.067Z,0.4
2023-02-14T04:11:44.994Z,0.4
2023-02-14T04:13:48.400Z,0.5
2023-02-14T04:15:48.367Z,0.5
2023-02-14T04:19:48.116Z,0.4
2023-02-14T04:21:48.018Z,0.4
2023-02-14T04:23:47.958Z,0.4
2023-02-14T04:25:47.861Z,0.3
2023-02-14T04:27:51.287Z,0.3
2023-02-14T04:29:51.232Z,0.4
2023-02-14T04:31:51.158Z,0.4
2023-02-14T04:37:50.793Z,0.2
2023-02-14T04:43:54.023Z,0.2
2023-02-14T04:45:53.955Z,0.2
2023-02-14T04:49:53.771Z,0.1
2023-02-14T04:59:56.846Z,0.2
2023-02-14T05:00:58.951Z,0.3
2023-02-14T05:02:58.437Z,0.2
2023-02-14T05:04:58.372Z,0.2
2023-02-14T05:06:58.259Z,0.2
2023-02-14T05:09:01.713Z,0.1
2023-02-14T05:11:01.875Z,0.2
2023-02-14T05:13:01.487Z,0.1
2023-02-14T05:15:01.415Z,0.1
2023-02-14T05:17:01.333Z,0.1
2023-02-14T05:19:01.219Z,0.2
2023-02-14T05:21:01.477Z,0.1
2023-02-14T05:23:04.573Z,0.1
2023-02-14T05:25:04.454Z,0
2023-02-14T05:27:04.374Z,0.1
2023-02-14T05:29:04.285Z,0
2023-02-14T05:31:04.451Z,-0.1
2023-02-14T05:33:04.138Z,-0.2
2023-02-14T05:35:04.019Z,-0.2
2023-02-14T05:37:07.437Z,-0.3
2023-02-14T05:39:07.352Z,-0.2
2023-02-14T05:41:07.228Z,-0.3
2023-02-14T05:43:07.153Z,-0.3
2023-02-14T05:47:06.984Z,-0.4
2023-02-14T05:49:06.921Z,-0.3
2023-02-14T05:51:10.315Z,-0.3
2023-02-14T05:53:10.215Z,-0.4
2023-02-14T05:55:10.164Z,-0.4
2023-02-14T05:58:11.792Z,-0.5
2023-02-14T06:00:11.700Z,-0.5
2023-02-14T06:02:11.632Z,-0.5
2023-02-14T06:04:15.005Z,-0.5
2023-02-14T06:06:14.940Z,-0.5
2023-02-14T06:08:14.840Z,-0.5
2023-02-14T06:10:14.774Z,-0.5
2023-02-14T06:12:14.681Z,-0.5
2023-02-14T06:14:14.613Z,-0.6
2023-02-14T06:16:14.563Z,-0.6
2023-02-14T06:18:17.920Z,-0.7
2023-02-14T06:20:17.825Z,-0.6
2023-02-14T06:22:17.757Z,-0.8
2023-02-14T06:24:17.662Z,-0.8
2023-02-14T06:26:17.612Z,-0.9
2023-02-14T06:28:17.518Z,-1
2023-02-14T06:30:17.500Z,-1
2023-02-14T06:32:20.843Z,-0.9
2023-02-14T06:34:20.770Z,-1.1
2023-02-14T06:36:20.677Z,-0.9
2023-02-14T06:38:20.607Z,-0.9
2023-02-14T06:46:23.762Z,-1
2023-02-14T06:48:23.639Z,-0.9
2023-02-14T06:50:23.565Z,-1
2023-02-14T06:51:25.278Z,-0.9
2023-02-14T06:53:25.161Z,-0.9
2023-02-14T06:55:25.109Z,-1
2023-02-14T06:57:25.031Z,-0.9
2023-02-14T06:59:28.422Z,-1
2023-02-14T07:01:28.356Z,-1
2023-02-14T07:03:28.249Z,-1
2023-02-14T07:05:28.154Z,-0.9
2023-02-14T07:07:28.074Z,-0.9
2023-02-14T07:09:27.992Z,-0.9
2023-02-14T07:11:27.918Z,-0.9
2023-02-14T07:13:31.307Z,-0.8
2023-02-14T07:15:31.228Z,-0.8
2023-02-14T07:17:31.166Z,-0.7
2023-02-14T07:19:31.064Z,-0.7
2023-02-14T07:21:30.990Z,-0.7
2023-02-14T07:23:30.931Z,-0.7
2023-02-14T07:27:34.199Z,-0.5
2023-02-14T07:29:34.135Z,-0.5
2023-02-14T07:31:34.183Z,-0.5
2023-02-14T07:33:34.010Z,-0.5
2023-02-14T07:41:37.118Z,-0.1
2023-02-14T07:50:45.932Z,0.1
2023-02-14T07:52:45.826Z,0.1
2023-02-14T07:54:45.766Z,0.2
2023-02-14T07:56:48.214Z,0.3
2023-02-14T07:58:48.172Z,0.6
2023-02-14T08:07:54.069Z,1.5
2023-02-14T08:09:53.993Z,1.3
2023-02-14T08:11:56.420Z,1.3
2023-02-14T08:13:56.355Z,1.5
2023-02-14T08:15:56.321Z,1.7
2023-02-14T08:17:58.711Z,2.1
2023-02-14T08:19:58.634Z,2.4
2023-02-14T08:21:58.529Z,2.8
2023-02-14T08:24:20.875Z,3.2
2023-02-14T08:26:20.768Z,3.2
2023-02-14T08:28:20.768Z,3.6
2023-02-14T08:30:24.206Z,3.1
2023-02-14T08:32:24.168Z,3.7
2023-02-14T08:34:23.950Z,4.4
2023-02-14T08:42:23.586Z,5.9
2023-02-14T08:44:26.967Z,6.7
2023-02-14T08:46:26.940Z,7.1
2023-02-14T08:48:26.771Z,7.9
2023-02-14T08:52:26.573Z,7.3
2023-02-14T08:54:26.490Z,5.6
2023-02-14T08:56:26.395Z,5.8
2023-02-14T08:58:30.900Z,6.9
2023-02-14T09:00:29.706Z,6.5
2023-02-14T09:02:29.557Z,7.4
2023-02-14T09:04:29.583Z,6.7
2023-02-14T09:06:29.377Z,5.6
2023-02-14T09:16:32.075Z,7.1
2023-02-14T09:23:33.153Z,7.8
2023-02-14T09:25:36.292Z,9.1
2023-02-14T09:27:36.175Z,9.5
2023-02-14T09:29:35.892Z,10.4
2023-02-14T09:31:35.736Z,10.8
2023-02-14T09:33:35.379Z,11.2
2023-02-14T09:35:35.134Z,11
2023-02-14T09:37:34.876Z,10.6
2023-02-14T09:39:38.013Z,10.1
2023-02-14T09:41:37.743Z,10.6
2023-02-14T09:43:37.445Z,11.6
2023-02-14T09:47:37.969Z,13
2023-02-14T09:49:36.674Z,12.8
2023-02-14T09:51:36.250Z,13.1
2023-02-14T09:53:39.415Z,13.1
2023-02-14T09:55:38.984Z,13.3
2023-02-14T09:57:38.661Z,13.6
2023-02-14T09:59:38.285Z,13
2023-02-14T10:01:37.986Z,12.5
2023-02-14T10:03:37.585Z,13.3
2023-02-14T10:05:37.160Z,13.7
2023-02-14T10:09:39.809Z,14.2
2023-02-14T10:11:39.396Z,15.3
2023-02-14T10:18:39.611Z,14.7
2023-02-14T10:22:42.442Z,15.1
2023-02-14T10:24:41.694Z,15.9
2023-02-14T10:26:41.263Z,15.8
2023-02-14T10:28:40.778Z,16.2
2023-02-14T10:30:40.456Z,16.4
2023-02-14T10:32:39.793Z,16.7
2023-02-14T10:34:42.735Z,15.8
2023-02-14T10:36:42.219Z,15.7
2023-02-14T10:44:40.146Z,15.6
2023-02-14T10:56:40.166Z,17.2
2023-02-14T10:58:39.639Z,16.5
2023-02-14T11:00:39.051Z,17.1
2023-02-14T11:04:41.142Z,17.6
2023-02-14T11:06:40.565Z,17.3
2023-02-14T11:07:41.880Z,17
2023-02-14T11:09:41.179Z,17.1
2023-02-14T11:11:40.512Z,18
2023-02-14T11:13:39.904Z,18.6
2023-02-14T11:15:42.523Z,18.5
2023-02-14T11:17:41.810Z,18.5
2023-02-14T11:19:41.094Z,18.2
2023-02-14T11:21:40.417Z,18.3
2023-02-14T11:23:39.637Z,18.3
2023-02-14T11:25:38.941Z,18
2023-02-14T11:29:40.839Z,17.7
2023-02-14T11:31:40.217Z,17.9
2023-02-14T11:33:39.334Z,18
2023-02-14T11:35:38.575Z,18.7
2023-02-14T11:37:37.849Z,17.9
2023-02-14T11:39:37.071Z,17.4
2023-02-14T11:41:36.343Z,18.2
2023-02-14T11:43:38.932Z,17.7
2023-02-14T11:45:38.171Z,17.4
2023-02-14T11:47:37.460Z,18.6
2023-02-14T11:49:36.678Z,19.2
2023-02-14T11:53:35.180Z,18.2
2023-02-14T11:55:34.415Z,19.2
2023-02-14T11:57:36.997Z,18.6
2023-02-14T11:59:36.227Z,18.2
2023-02-14T12:01:35.496Z,17.7
2023-02-14T12:03:56.575Z,18.5
2023-02-14T12:05:55.804Z,18.7
2023-02-14T12:07:55.009Z,17.3
2023-02-14T12:09:59.945Z,17.5
2023-02-14T12:11:56.800Z,17.9
2023-02-14T12:17:54.521Z,18.3
2023-02-14T12:19:53.751Z,18.2
2023-02-14T12:21:52.992Z,18.4
2023-02-14T12:29:53.315Z,17.9
2023-02-14T12:39:52.828Z,19.2
2023-02-14T12:45:50.577Z,18.8
2023-02-14T12:47:49.793Z,18.8
2023-02-14T12:49:49.064Z,18.6
2023-02-14T12:51:51.653Z,18.4
2023-02-14T12:53:50.884Z,18.3
2023-02-14T12:55:50.104Z,18.4
2023-02-14T12:56:51.413Z,19
2023-02-14T13:00:49.885Z,19.1
2023-02-14T13:02:49.155Z,18.9
2023-02-14T13:04:51.711Z,18.9
2023-02-14T13:06:50.937Z,18.8
2023-02-14T13:08:50.210Z,19.2
2023-02-14T13:10:49.448Z,19.5
2023-02-14T13:12:48.683Z,19.2
2023-02-14T13:14:47.931Z,19.7
2023-02-14T13:16:47.188Z,19.9
2023-02-14T13:18:49.862Z,20.3
2023-02-14T13:20:49.038Z,20.5
2023-02-14T13:22:48.265Z,19.6
2023-02-14T13:24:47.555Z,19.9
2023-02-14T13:30:45.297Z,19.4
2023-02-14T13:32:47.914Z,18.9
2023-02-14T13:34:47.668Z,19.2
2023-02-14T13:36:46.938Z,19.6
2023-02-14T13:38:46.244Z,19.7
2023-02-14T13:40:45.479Z,19.7
2023-02-14T13:42:44.761Z,18.8
2023-02-14T13:44:43.989Z,19.8
2023-02-14T13:46:46.666Z,19.7
2023-02-14T13:51:46.464Z,19.4
2023-02-14T13:53:45.754Z,19.3
2023-02-14T13:55:45.031Z,19.6
2023-02-14T13:57:44.356Z,20.3
2023-02-14T13:59:48.492Z,20.6
2023-02-14T14:01:47.781Z,20.4
2023-02-14T14:03:47.097Z,19.7
2023-02-14T14:05:46.371Z,19.3
2023-02-14T14:07:45.670Z,19.8
2023-02-14T14:11:44.310Z,19.7
2023-02-14T14:17:45.581Z,20.1
2023-02-14T14:19:46.804Z,20.1
2023-02-14T14:21:44.339Z,19.4
2023-02-14T14:23:43.649Z,20.3
2023-02-14T14:25:43.028Z,21.2
2023-02-14T14:27:45.635Z,21.3
2023-02-14T14:29:44.992Z,20.7
2023-02-14T14:31:44.456Z,20.5
2023-02-14T14:33:43.857Z,19.2
2023-02-14T14:35:43.197Z,18.9
2023-02-14T14:37:42.566Z,18.9
2023-02-14T14:39:41.887Z,19.5
2023-02-14T14:41:44.595Z,19.8
2023-02-14T14:43:43.934Z,19.5
2023-02-14T14:45:43.427Z,19.6
2023-02-14T14:46:44.700Z,19.2
2023-02-14T14:52:42.922Z,19.2
2023-02-14T14:56:45.302Z,19.5
2023-02-14T14:58:44.760Z,19.6
2023-02-14T15:00:44.275Z,19.5
2023-02-14T15:02:43.741Z,19.3
2023-02-14T15:04:43.318Z,19.1
2023-02-14T15:06:42.761Z,18.8
2023-02-14T15:08:45.654Z,17.7
2023-02-14T15:12:44.669Z,17.5
2023-02-14T15:14:44.184Z,17.6
2023-02-14T15:16:43.730Z,18.1
2023-02-14T15:18:43.218Z,18.4
2023-02-14T15:20:42.739Z,18.6
2023-02-14T15:24:45.681Z,19.1
2023-02-14T15:26:45.189Z,18.8
2023-02-14T15:28:44.717Z,17.6
2023-02-14T15:30:44.434Z,16.9
2023-02-14T15:32:43.796Z,17.4
2023-02-14T15:34:43.337Z,17.6
2023-02-14T15:36:46.280Z,17.1
2023-02-14T15:38:45.807Z,17.3
2023-02-14T15:40:45.342Z,17.6
2023-02-14T15:43:00.302Z,16.3
2023-02-14T15:44:59.814Z,16.2
2023-02-14T15:46:59.398Z,16.4
2023-02-14T15:49:02.407Z,16.6
2023-02-14T15:51:02.131Z,16.7
2023-02-14T15:57:00.596Z,15.6
2023-02-14T15:59:00.150Z,14.6
2023-02-14T16:01:00.018Z,13.1
2023-02-14T16:03:02.679Z,11.9
2023-02-14T16:05:02.285Z,11.7
2023-02-14T16:07:01.811Z,11.5
2023-02-14T16:17:03.237Z,10.6
2023-02-14T16:19:02.716Z,10.5
2023-02-14T16:21:02.595Z,10.3
2023-02-14T16:23:01.931Z,10.2
2023-02-14T16:25:01.672Z,10.1
2023-02-14T16:27:01.185Z,10
2023-02-14T16:29:00.801Z,9.9
2023-02-14T16:31:04.247Z,9.8
2023-02-14T16:33:03.521Z,9.7
2023-02-14T16:35:03.135Z,9.6
2023-02-14T16:36:04.684Z,9.5
2023-02-14T16:38:04.348Z,9.5
2023-02-14T16:42:03.635Z,9.3
2023-02-14T16:46:06.433Z,8.9
2023-02-14T16:48:06.040Z,8.9
2023-02-14T16:52:05.397Z,8.7
2023-02-14T16:54:05.041Z,8.6
2023-02-14T16:56:04.768Z,8.5
2023-02-14T17:04:06.987Z,8.1
2023-02-14T17:06:06.676Z,8.1
2023-02-14T17:08:06.397Z,8
2023-02-14T17:10:06.100Z,7.9
2023-02-14T17:12:09.206Z,7.8
2023-02-14T17:14:08.916Z,7.7
2023-02-14T17:16:08.679Z,7.6
2023-02-14T17:18:08.350Z,7.5
2023-02-14T17:20:08.068Z,7.4
2023-02-14T17:22:07.775Z,7.2
2023-02-14T17:24:07.482Z,7
2023-02-14T17:26:10.598Z,6.8
2023-02-14T17:28:10.327Z,6.8
2023-02-14T17:30:10.117Z,6.8
2023-02-14T17:31:11.692Z,6.8
2023-02-14T17:33:11.323Z,6.7
2023-02-14T17:35:11.019Z,6.6
2023-02-14T17:37:10.764Z,6.5
2023-02-14T17:39:13.869Z,6.4
2023-02-14T17:41:13.600Z,6.3
2023-02-14T17:43:13.311Z,6.3
2023-02-14T17:47:12.808Z,6.2
2023-02-14T17:49:12.496Z,6.2
2023-02-14T17:51:12.219Z,6.3
2023-02-14T17:53:15.377Z,6.3
2023-02-14T17:55:15.075Z,6.2
2023-02-14T17:57:14.803Z,6.1
2023-02-14T17:59:14.540Z,6.2
2023-02-14T18:01:14.291Z,6.1
2023-02-14T18:03:14.128Z,6.1
2023-02-14T18:05:13.926Z,6
2023-02-14T18:07:17.090Z,6.1
2023-02-14T18:09:16.820Z,6.1
2023-02-14T18:11:16.606Z,6.1
2023-02-14T18:13:16.464Z,5.9
2023-02-14T18:17:15.938Z,5.6
2023-02-14T18:19:15.663Z,5.6
2023-02-14T18:21:18.806Z,5.5
2023-02-14T18:23:18.550Z,5.4
2023-02-14T18:25:18.745Z,5.5
2023-02-14T18:26:20.385Z,5.4
2023-02-14T18:28:20.162Z,5.5
2023-02-14T18:30:20.298Z,5.4
2023-02-14T18:32:19.844Z,5.3
2023-02-14T18:34:23.084Z,5.2
2023-02-14T18:44:22.089Z,5
2023-02-14T18:46:21.850Z,5
2023-02-14T18:48:25.177Z,4.9
2023-02-14T18:50:24.975Z,4.8
2023-02-14T18:52:24.800Z,4.7
2023-02-14T18:54:24.590Z,4.7
2023-02-14T18:56:24.461Z,4.7
2023-02-14T18:58:24.326Z,4.7
2023-02-14T19:00:24.197Z,4.7
2023-02-14T19:04:27.428Z,4.7
2023-02-14T19:12:26.832Z,4.3
2023-02-14T19:14:26.894Z,4.3
2023-02-14T19:18:29.815Z,4.3
2023-02-14T19:20:29.734Z,4.3
2023-02-14T19:26:51.665Z,4.3
2023-02-14T19:28:54.901Z,4.2
2023-02-14T19:30:54.751Z,4.2
2023-02-14T19:34:54.605Z,4.1
2023-02-14T19:36:54.501Z,4.2
2023-02-14T19:38:54.376Z,4.2
2023-02-14T19:40:54.249Z,4.2
2023-02-14T19:46:58.782Z,3.9
2023-02-14T19:48:58.558Z,3.9
2023-02-14T19:50:58.571Z,3.8
2023-02-14T19:52:58.419Z,3.8
2023-02-14T19:54:58.218Z,3.8
2023-02-14T19:57:01.596Z,3.8
2023-02-14T19:59:01.462Z,3.7
2023-02-14T20:01:01.802Z,3.7
2023-02-14T20:03:01.274Z,3.6
2023-02-14T20:05:01.195Z,3.5
2023-02-14T20:07:01.112Z,3.5
2023-02-14T20:09:01.145Z,3.5
2023-02-14T20:11:04.339Z,3.5
2023-02-14T20:13:04.232Z,3.5
2023-02-14T20:15:04.148Z,3.5
2023-02-14T20:16:05.794Z,3.5
2023-02-14T20:18:05.657Z,3.4
2023-02-14T20:20:05.626Z,3.3
2023-02-14T20:22:05.368Z,3.3
2023-02-14T20:24:08.592Z,3.1
2023-02-14T20:26:08.371Z,3.1
2023-02-14T20:28:08.275Z,3
2023-02-14T20:30:08.214Z,3.1
2023-02-14T20:34:07.954Z,2.9
2023-02-14T20:42:10.911Z,2.9
2023-02-14T20:46:10.713Z,2.7
2023-02-14T20:52:13.884Z,2.6
2023-02-14T20:54:13.777Z,2.6
2023-02-14T20:56:13.674Z,2.5
2023-02-14T20:58:13.588Z,2.4
2023-02-14T21:00:13.481Z,2.5
2023-02-14T21:02:13.383Z,2.6
2023-02-14T21:04:13.288Z,2.5
2023-02-14T21:06:16.692Z,2.4
2023-02-14T21:08:16.573Z,2.4
2023-02-14T21:11:18.173Z,2.2
2023-02-14T21:13:18.063Z,2.3
2023-02-14T21:15:18.096Z,2.2
2023-02-14T21:17:17.892Z,2.2
2023-02-14T21:19:21.272Z,2.2
2023-02-14T21:21:21.188Z,2.2
2023-02-14T21:29:20.714Z,2.1
2023-02-14T21:31:20.763Z,2.1
2023-02-14T21:33:24.062Z,2.2
2023-02-14T21:35:23.949Z,2.2
2023-02-14T21:37:23.873Z,2.2
2023-02-14T21:39:23.772Z,2.2
2023-02-14T21:41:23.696Z,2.1
2023-02-14T21:43:23.569Z,2.1
2023-02-14T21:45:23.466Z,2.1
2023-02-14T21:47:26.896Z,2.1
2023-02-14T21:49:26.798Z,2.1
2023-02-14T21:51:26.673Z,2
2023-02-14T21:53:26.597Z,2.1
2023-02-14T21:55:26.473Z,2
2023-02-14T21:57:26.380Z,1.9
2023-02-14T21:59:26.321Z,1.8
2023-02-14T22:01:29.734Z,1.8
2023-02-14T22:05:29.557Z,1.7
2023-02-14T22:08:31.129Z,1.7
2023-02-14T22:10:31.026Z,1.6
2023-02-14T22:14:34.359Z,1.5
2023-02-14T22:16:34.257Z,1.5
2023-02-14T22:18:34.173Z,1.4
2023-02-14T22:20:34.067Z,1.4
2023-02-14T22:22:33.933Z,1.4
2023-02-14T22:24:33.859Z,1.4
2023-02-14T22:26:33.798Z,1.3
2023-02-14T22:28:37.163Z,1.4
2023-02-14T22:36:36.825Z,1.2
2023-02-14T22:46:39.871Z,1.1
2023-02-14T22:48:39.760Z,1.1
2023-02-14T22:50:39.648Z,1.2
2023-02-14T22:54:39.466Z,1
2023-02-14T22:56:42.898Z,1
2023-02-14T22:58:42.811Z,0.9
2023-02-14T23:00:42.668Z,0.9
2023-02-14T23:03:02.727Z,1.1
2023-02-14T23:05:02.551Z,1
2023-02-14T23:07:02.453Z,1
2023-02-14T23:09:05.855Z,0.9
2023-02-14T23:11:05.724Z,0.9
2023-02-14T23:13:05.643Z,0.8
2023-02-14T23:15:05.572Z,0.8
2023-02-14T23:17:05.485Z,0.7
2023-02-14T23:19:05.375Z,0.7
2023-02-14T23:21:05.277Z,0.6
2023-02-14T23:25:08.620Z,0.8
2023-02-14T23:27:08.545Z,0.7
2023-02-14T23:33:08.280Z,0.5
2023-02-14T23:35:08.208Z,0.5
2023-02-14T23:47:11.172Z,0.3
2023-02-14T23:49:11.082Z,0.3
2023-02-14T23:51:14.501Z,0.2
2023-02-14T23:53:14.409Z,0.2
2023-02-14T23:55:14.312Z,0.2
2023-02-14T23:56:16.001Z,0.3
2023-02-14T23:58:15.928Z,0.2
